createdAt,value
2022-09-04T00:00:29.001Z,13.02
2022-09-04T00:03:49.103Z,13.01
2022-09-04T00:06:59.771Z,12.98
2022-09-04T00:10:42.072Z,12.98
2022-09-04T00:13:56.218Z,12.95
2022-09-04T00:17:08.933Z,12.91
2022-09-04T00:20:18.984Z,12.88
2022-09-04T00:23:41.339Z,12.87
2022-09-04T00:27:14.328Z,12.85
2022-09-04T00:30:26.467Z,12.83
2022-09-04T00:33:51.539Z,12.80
2022-09-04T00:37:01.389Z,12.79
2022-09-04T00:40:20.453Z,12.74
2022-09-04T00:43:56.522Z,12.74
2022-09-04T00:47:23.578Z,12.71
2022-09-04T00:50:40.081Z,12.73
2022-09-04T00:54:21.876Z,12.77
2022-09-04T00:58:14.315Z,12.79
2022-09-04T01:01:20.373Z,12.81
2022-09-04T01:04:38.833Z,12.75
2022-09-04T01:07:56.470Z,12.72
2022-09-04T01:11:42.899Z,12.73
2022-09-04T01:15:03.881Z,12.74
2022-09-04T01:18:51.928Z,12.72
2022-09-04T01:22:38.124Z,12.68
2022-09-04T01:26:25.882Z,12.59
2022-09-04T01:29:54.771Z,12.53
2022-09-04T01:33:40.866Z,12.56
2022-09-04T01:36:55.439Z,12.59
2022-09-04T01:40:07.628Z,12.57
2022-09-04T01:43:29.259Z,12.55
2022-09-04T01:46:56.632Z,12.56
2022-09-04T01:50:12.309Z,12.56
2022-09-04T01:53:33.715Z,12.57
2022-09-04T01:56:54.007Z,12.53
2022-09-04T02:00:10.631Z,12.51
2022-09-04T02:03:34.913Z,12.44
2022-09-04T02:07:04.109Z,12.44
2022-09-04T02:10:19.397Z,12.41
2022-09-04T02:14:02.739Z,12.38
2022-09-04T02:17:38.797Z,12.37
2022-09-04T02:20:46.530Z,12.38
2022-09-04T02:24:07.406Z,12.34
2022-09-04T02:27:32.205Z,12.29
2022-09-04T02:30:38.574Z,12.23
2022-09-04T02:34:10.235Z,12.20
2022-09-04T02:37:42.704Z,12.13
2022-09-04T02:41:14.390Z,12.08
2022-09-04T02:44:43.789Z,12.03
2022-09-04T02:48:02.745Z,12.02
2022-09-04T02:52:00.570Z,12.05
2022-09-04T02:55:31.051Z,12.11
2022-09-04T02:58:54.015Z,12.14
2022-09-04T03:02:14.137Z,12.16
2022-09-04T03:05:40.965Z,12.10
2022-09-04T03:09:01.051Z,12.03
2022-09-04T03:12:42.324Z,12.03
2022-09-04T03:16:13.822Z,12.04
2022-09-04T03:19:30.077Z,11.98
2022-09-04T03:22:46.895Z,11.93
2022-09-04T03:26:28.282Z,11.90
2022-09-04T03:29:47.966Z,11.88
2022-09-04T03:33:06.191Z,11.84
2022-09-04T03:36:26.296Z,11.80
2022-09-04T03:39:55.867Z,11.76
2022-09-04T03:43:32.673Z,11.74
2022-09-04T03:46:43.121Z,11.75
2022-09-04T03:50:24.154Z,11.79
2022-09-04T03:53:57.727Z,11.82
2022-09-04T03:57:29.453Z,11.80
2022-09-04T04:00:36.351Z,11.78
2022-09-04T04:04:39.333Z,11.78
2022-09-04T04:08:17.031Z,11.81
2022-09-04T04:11:43.271Z,11.83
2022-09-04T04:15:00.639Z,11.87
2022-09-04T04:18:38.647Z,11.92
2022-09-04T04:22:23.943Z,11.97
2022-09-04T04:25:52.386Z,12.02
2022-09-04T04:29:20.783Z,12.02
2022-09-04T04:32:47.513Z,12.04
2022-09-04T04:36:08.300Z,12.06
2022-09-04T04:39:32.135Z,12.11
2022-09-04T04:43:05.902Z,12.15
2022-09-04T04:46:34.305Z,12.18
2022-09-04T04:50:14.821Z,12.21
2022-09-04T04:53:52.020Z,12.22
2022-09-04T04:57:20.795Z,12.21
2022-09-04T05:00:34.315Z,12.22
2022-09-04T05:04:00.874Z,12.22
2022-09-04T05:07:11.834Z,12.24
2022-09-04T05:10:47.751Z,12.23
2022-09-04T05:14:21.514Z,12.24
2022-09-04T05:18:11.814Z,12.21
2022-09-04T05:21:30.161Z,12.19
2022-09-04T05:24:47.091Z,12.19
2022-09-04T05:28:23.361Z,12.22
2022-09-04T05:31:55.223Z,12.26
2022-09-04T05:35:37.097Z,12.35
2022-09-04T05:39:30.910Z,12.39
2022-09-04T05:42:57.618Z,12.49
2022-09-04T05:46:22.418Z,12.58
2022-09-04T05:49:38.275Z,12.61
2022-09-04T05:53:24.526Z,12.71
2022-09-04T05:57:18.607Z,12.81
2022-09-04T06:00:30.218Z,12.86
2022-09-04T06:04:05.338Z,12.93
2022-09-04T06:07:37.783Z,13.01
2022-09-04T06:11:12.792Z,13.05
2022-09-04T06:14:44.703Z,13.09
2022-09-04T06:17:58.383Z,13.14
2022-09-04T06:21:24.620Z,13.19
2022-09-04T06:24:56.983Z,13.28
2022-09-04T06:28:36.852Z,13.38
2022-09-04T06:32:03.999Z,13.48
2022-09-04T06:35:30.116Z,13.62
2022-09-04T06:39:05.354Z,13.75
2022-09-04T06:42:41.325Z,13.88
2022-09-04T06:46:05.367Z,14.02
2022-09-04T06:49:42.998Z,14.15
2022-09-04T06:53:14.697Z,14.28
2022-09-04T06:56:51.336Z,14.34
2022-09-04T07:00:25.386Z,14.42
2022-09-04T07:03:59.867Z,14.48
2022-09-04T07:07:27.964Z,14.54
2022-09-04T07:10:41.672Z,14.63
2022-09-04T07:14:20.647Z,14.67
2022-09-04T07:17:58.453Z,14.69
2022-09-04T07:21:14.953Z,14.71
2022-09-04T07:24:45.037Z,14.78
2022-09-04T07:28:22.564Z,14.84
2022-09-04T07:31:59.660Z,14.92
2022-09-04T07:35:35.030Z,14.98
2022-09-04T07:38:57.081Z,15.03
2022-09-04T07:42:07.158Z,15.12
2022-09-04T07:45:38.013Z,15.20
2022-09-04T07:49:00.488Z,15.25
2022-09-04T07:52:47.064Z,15.26
2022-09-04T07:56:14.749Z,15.33
2022-09-04T07:59:52.902Z,15.34
2022-09-04T08:03:34.913Z,15.38
2022-09-04T08:06:53.126Z,15.44
2022-09-04T08:10:22.658Z,15.56
2022-09-04T08:13:52.357Z,15.67
2022-09-04T08:17:10.707Z,15.70
2022-09-04T08:20:35.630Z,15.67
2022-09-04T08:24:05.440Z,15.66
2022-09-04T08:27:44.176Z,15.74
2022-09-04T08:31:06.023Z,15.83
2022-09-04T08:34:51.875Z,16.01
2022-09-04T08:38:48.950Z,16.13
2022-09-04T08:42:27.745Z,16.30
2022-09-04T08:45:50.449Z,16.53
2022-09-04T08:49:40.801Z,16.76
2022-09-04T08:57:10.241Z,17.21
2022-09-04T09:00:56.905Z,17.32
2022-09-04T09:04:32.938Z,17.19
2022-09-04T09:08:12.271Z,17.09
2022-09-04T09:11:45.759Z,17.02
2022-09-04T09:15:21.950Z,17.07
2022-09-04T09:18:55.950Z,17.28
2022-09-04T09:22:09.009Z,17.42
2022-09-04T09:25:34.673Z,17.51
2022-09-04T09:29:17.052Z,17.57
2022-09-04T09:33:02.712Z,17.55
2022-09-04T09:36:24.940Z,17.38
2022-09-04T09:39:48.452Z,17.25
2022-09-04T09:43:26.209Z,17.42
2022-09-04T09:47:11.915Z,17.76
2022-09-04T09:50:40.612Z,18.01
2022-09-04T09:54:24.161Z,18.00
2022-09-04T09:57:53.244Z,17.84
2022-09-04T10:01:23.838Z,17.77
2022-09-04T10:05:06.813Z,17.79
2022-09-04T10:08:48.647Z,17.71
2022-09-04T10:12:00.599Z,17.56
2022-09-04T10:15:49.992Z,17.51
2022-09-04T10:19:53.210Z,17.49
2022-09-04T10:23:41.025Z,17.52
2022-09-04T10:27:03.371Z,17.66
2022-09-04T10:30:26.028Z,17.70
2022-09-04T10:33:43.781Z,17.70
2022-09-04T10:37:24.250Z,17.75
2022-09-04T10:40:51.302Z,17.75
2022-09-04T10:44:44.339Z,18.03
2022-09-04T10:48:09.019Z,18.36
2022-09-04T10:51:26.240Z,18.45
2022-09-04T10:55:19.719Z,18.47
2022-09-04T10:58:36.901Z,18.40
2022-09-04T11:02:13.068Z,18.19
2022-09-04T11:05:27.761Z,18.14
2022-09-04T11:08:51.809Z,18.11
2022-09-04T11:12:28.963Z,18.07
2022-09-04T11:16:03.215Z,18.17
2022-09-04T11:19:47.851Z,18.48
2022-09-04T11:23:22.537Z,18.60
2022-09-04T11:27:08.058Z,18.58
2022-09-04T11:30:26.092Z,18.51
2022-09-04T11:34:03.263Z,18.70
2022-09-04T11:37:30.587Z,18.99
2022-09-04T11:41:03.186Z,19.06
2022-09-04T11:44:37.546Z,18.96
2022-09-04T11:48:15.113Z,18.83
2022-09-04T11:51:54.802Z,18.70
2022-09-04T11:55:44.245Z,18.62
2022-09-04T11:59:30.393Z,18.59
2022-09-04T12:02:55.797Z,18.52
2022-09-04T12:06:43.362Z,18.45
2022-09-04T12:10:21.948Z,18.39
2022-09-04T12:14:16.526Z,18.54
2022-09-04T12:17:42.879Z,18.83
2022-09-04T12:21:12.931Z,19.12
2022-09-04T12:24:32.181Z,19.44
2022-09-04T12:27:56.971Z,19.72
2022-09-04T12:31:40.290Z,19.97
2022-09-04T12:35:07.074Z,20.16
2022-09-04T12:38:58.693Z,20.06
2022-09-04T12:42:45.741Z,19.85
2022-09-04T12:46:24.130Z,19.60
2022-09-04T12:50:15.358Z,19.43
2022-09-04T12:54:06.942Z,19.44
2022-09-04T12:57:32.389Z,19.54
2022-09-04T13:00:47.203Z,19.63
2022-09-04T13:03:56.213Z,19.64
2022-09-04T13:07:16.604Z,19.71
2022-09-04T13:10:45.182Z,19.74
2022-09-04T13:14:05.620Z,19.65
2022-09-04T13:17:25.457Z,19.58
2022-09-04T13:20:50.985Z,19.40
2022-09-04T13:24:18.584Z,19.36
2022-09-04T13:27:51.751Z,19.33
2022-09-04T13:31:05.942Z,19.29
2022-09-04T13:34:19.961Z,19.38
2022-09-04T13:37:52.625Z,19.40
2022-09-04T13:41:39.244Z,19.42
2022-09-04T13:45:16.535Z,19.37
2022-09-04T13:48:44.411Z,19.27
2022-09-04T13:52:03.032Z,19.22
2022-09-04T13:55:18.356Z,19.16
2022-09-04T13:58:49.306Z,19.09
2022-09-04T14:01:58.773Z,19.01
2022-09-04T14:05:03.848Z,18.99
2022-09-04T14:08:20.669Z,18.95
2022-09-04T14:11:55.317Z,18.91
2022-09-04T14:15:24.109Z,18.82
2022-09-04T14:19:10.806Z,18.70
2022-09-04T14:22:16.724Z,18.66
2022-09-04T14:25:33.422Z,18.69
2022-09-04T14:29:21.853Z,18.84
2022-09-04T14:33:00.831Z,18.99
2022-09-04T14:36:37.577Z,19.15
2022-09-04T14:40:16.188Z,19.25
2022-09-04T14:44:03.679Z,19.25
2022-09-04T14:47:57.291Z,19.19
2022-09-04T14:51:08.393Z,19.09
2022-09-04T14:54:16.389Z,19.00
2022-09-04T14:57:50.699Z,18.92
2022-09-04T15:01:21.649Z,18.88
2022-09-04T15:04:34.399Z,18.84
2022-09-04T15:08:08.930Z,18.94
2022-09-04T15:11:29.283Z,19.06
2022-09-04T15:14:47.335Z,19.18
2022-09-04T15:17:58.116Z,19.26
2022-09-04T15:21:21.363Z,19.34
2022-09-04T15:25:02.244Z,19.40
2022-09-04T15:28:26.935Z,19.37
2022-09-04T15:31:49.060Z,19.26
2022-09-04T15:34:58.004Z,19.19
2022-09-04T15:38:23.480Z,19.15
2022-09-04T15:41:57.675Z,19.12
2022-09-04T15:45:05.882Z,19.03
2022-09-04T15:48:41.775Z,18.91
2022-09-04T15:52:10.097Z,18.82
2022-09-04T15:55:44.126Z,18.75
2022-09-04T15:59:09.304Z,18.68
2022-09-04T16:02:25.829Z,18.61
2022-09-04T16:05:59.622Z,18.52
2022-09-04T16:09:21.699Z,18.37
2022-09-04T16:12:30.795Z,18.25
2022-09-04T16:15:55.817Z,18.13
2022-09-04T16:19:31.167Z,17.98
2022-09-04T16:23:12.821Z,17.82
2022-09-04T16:26:32.848Z,17.63
2022-09-04T16:29:51.567Z,17.49
2022-09-04T16:32:57.257Z,17.32
2022-09-04T16:36:04.114Z,17.17
2022-09-04T16:39:46.093Z,17.01
2022-09-04T16:43:04.247Z,16.87
2022-09-04T16:46:43.661Z,16.69
2022-09-04T16:50:20.497Z,16.53
2022-09-04T16:53:35.475Z,16.34
2022-09-04T16:57:12.087Z,16.13
2022-09-04T17:00:15.243Z,15.96
2022-09-04T17:03:35.426Z,15.80
2022-09-04T17:07:00.031Z,15.68
2022-09-04T17:10:37.230Z,15.55
2022-09-04T17:13:50.394Z,15.42
2022-09-04T17:17:30.195Z,15.29
2022-09-04T17:20:41.963Z,15.17
2022-09-04T17:29:02.864Z,15.05
2022-09-04T17:29:12.860Z,14.90
2022-09-04T17:30:28.883Z,14.78
2022-09-04T17:39:30.269Z,14.66
2022-09-04T17:40:41.419Z,14.54
2022-09-04T17:40:56.106Z,14.41
2022-09-04T17:43:22.621Z,14.31
2022-09-04T17:46:14.454Z,14.20
2022-09-04T17:49:36.260Z,14.10
2022-09-04T17:52:48.865Z,13.99
2022-09-04T17:55:58.819Z,13.88
2022-09-04T17:59:24.546Z,13.77
2022-09-04T18:03:02.730Z,13.69
2022-09-04T18:06:28.090Z,13.56
2022-09-04T18:09:43.430Z,13.47
2022-09-04T18:13:36.630Z,13.41
2022-09-04T18:17:11.095Z,13.34
2022-09-04T18:20:19.620Z,13.22
2022-09-04T18:24:07.378Z,13.12
2022-09-04T18:27:26.982Z,13.04
2022-09-04T18:36:50.020Z,12.93
2022-09-04T18:37:23.605Z,12.85
2022-09-04T18:37:45.074Z,12.80
2022-09-04T18:44:41.808Z,12.74
2022-09-04T18:50:30.192Z,12.58
2022-09-04T18:50:43.621Z,12.68
2022-09-04T18:51:38.174Z,12.49
2022-09-04T18:54:59.406Z,12.40
2022-09-04T18:58:11.265Z,12.32
2022-09-04T19:01:28.147Z,12.24
2022-09-04T19:04:55.269Z,12.19
2022-09-04T19:08:13.391Z,12.15
2022-09-04T19:11:28.376Z,12.11
2022-09-04T19:14:42.751Z,12.05
2022-09-04T19:17:51.115Z,12.01
2022-09-04T19:21:14.151Z,11.95
2022-09-04T19:24:46.658Z,11.91
2022-09-04T19:28:07.912Z,11.85
2022-09-04T19:31:21.586Z,11.80
2022-09-04T19:34:55.464Z,11.74
2022-09-04T19:42:02.922Z,11.66
2022-09-04T19:46:03.556Z,11.61
2022-09-04T19:46:26.494Z,11.56
2022-09-04T19:48:16.216Z,11.51
2022-09-04T19:53:29.945Z,11.44
2022-09-04T19:55:23.858Z,11.36
2022-09-04T19:58:25.106Z,11.29
2022-09-04T20:01:35.590Z,11.26
2022-09-04T20:04:55.146Z,11.22
2022-09-04T20:08:18.097Z,11.15
2022-09-04T20:11:41.568Z,11.11
2022-09-04T20:14:57.253Z,11.05
2022-09-04T20:18:24.708Z,11.01
2022-09-04T20:21:44.799Z,10.95
2022-09-04T20:25:07.050Z,10.86
2022-09-04T20:28:36.562Z,10.81
2022-09-04T20:31:56.058Z,10.78
2022-09-04T20:35:33.253Z,10.74
2022-09-04T20:38:55.879Z,10.68
2022-09-04T20:42:08.485Z,10.58
2022-09-04T20:47:14.903Z,10.52
2022-09-04T20:52:53.162Z,10.47
2022-09-04T20:52:56.684Z,10.43
2022-09-04T20:55:18.803Z,10.35
2022-09-04T21:03:14.626Z,10.30
2022-09-04T21:03:20.991Z,10.24
2022-09-04T21:06:09.767Z,10.16
2022-09-04T21:09:39.076Z,10.04
2022-09-04T21:13:12.292Z,10.01
2022-09-04T21:16:08.037Z,10.01
2022-09-04T21:19:54.295Z,10.00
2022-09-04T21:23:23.669Z,9.95
2022-09-04T21:26:41.846Z,9.88
2022-09-04T21:30:05.828Z,9.82
2022-09-04T21:33:35.970Z,9.78
2022-09-04T21:36:56.956Z,9.76
2022-09-04T21:40:51.388Z,9.77
2022-09-04T21:44:24.863Z,9.75
2022-09-04T21:47:45.045Z,9.70
2022-09-04T21:51:15.709Z,9.61
2022-09-04T21:57:51.813Z,9.54
2022-09-04T22:02:36.670Z,9.45
2022-09-04T22:02:49.309Z,9.45
2022-09-04T22:05:38.090Z,9.42
2022-09-04T22:13:27.333Z,9.34
2022-09-04T22:13:38.524Z,9.27
2022-09-04T22:16:19.018Z,9.20
2022-09-04T22:20:10.493Z,9.18
2022-09-04T22:23:39.339Z,9.16
2022-09-04T22:27:26.059Z,9.11
2022-09-04T22:30:33.374Z,9.10
2022-09-04T22:34:15.077Z,9.11
2022-09-04T22:37:14.724Z,9.11
2022-09-04T22:40:55.923Z,9.09
2022-09-04T22:43:46.913Z,9.01
2022-09-04T22:47:16.305Z,8.98
2022-09-04T22:50:49.986Z,8.96
2022-09-04T22:54:16.414Z,8.95
2022-09-04T22:57:45.294Z,8.92
2022-09-04T23:01:19.210Z,8.84
2022-09-04T23:04:31.283Z,8.82
2022-09-04T23:13:42.563Z,8.76
2022-09-04T23:13:49.617Z,8.71
2022-09-04T23:15:46.352Z,8.69
2022-09-04T23:20:39.736Z,8.67
2022-09-04T23:26:49.215Z,8.60
2022-09-04T23:26:58.157Z,8.55
2022-09-04T23:30:02.386Z,8.52
2022-09-04T23:33:31.429Z,8.45
2022-09-04T23:37:16.051Z,8.39
2022-09-04T23:40:51.191Z,8.36
2022-09-04T23:44:32.171Z,8.36
2022-09-04T23:48:20.927Z,8.31
2022-09-04T23:52:01.302Z,8.30
2022-09-04T23:55:36.578Z,8.30
2022-09-04T23:59:35.455Z,8.28
